Taylorsville, Georgia
Current Conditions -  °F | °C
As of 9:53 AM on Saturday 20 Dec 2014 (Local Time) from KVPC Reporting Station
Overcast Overcast  
Wind Chill: 37°   Ceiling: 1700
Heat Index: 40°   Visibility: 9mi
Dew Point: 35°   Wind: 5mph
Humidity: 83%   Direction: 360°N
Pressure: 30.24"   Gusts: NA
Location:  34.09°N, 84.99°W
Report Text: KVPC 201453Z AUTO 36004KT 9SM OVC017 04/02 A3024 RMK AO2 SLP239 T00440017 51014
Loading
Personal Weather Stations






























Interactive Weather Map New forecast layout! Learn more

10-Day Weather Forecast

Advertisements
Track Severe Weather on mobile